createdAt,value
2019-02-26T00:02:02.561Z,6.50
2019-02-26T00:04:35.051Z,6.40
2019-02-26T00:07:05.754Z,6.30
2019-02-26T00:09:36.179Z,6.30
2019-02-26T00:12:06.869Z,6.30
2019-02-26T00:14:37.234Z,6.30
2019-02-26T00:17:10.618Z,6.30
2019-02-26T00:19:39.877Z,6.20
2019-02-26T00:22:13.718Z,6.20
2019-02-26T00:24:44.902Z,6.30
2019-02-26T00:27:16.540Z,6.40
2019-02-26T00:29:49.185Z,6.50
2019-02-26T00:32:19.671Z,6.30
2019-02-26T00:34:50.200Z,6.20
2019-02-26T00:37:22.148Z,6.20
2019-02-26T00:39:54.152Z,6.10
2019-02-26T00:42:26.405Z,6.10
2019-02-26T00:44:58.265Z,6.10
2019-02-26T00:47:31.835Z,6.10
2019-02-26T00:50:01.692Z,5.90
2019-02-26T00:52:33.062Z,5.90
2019-02-26T00:55:05.433Z,5.80
2019-02-26T00:57:38.908Z,5.70
2019-02-26T01:00:12.880Z,5.60
2019-02-26T01:02:44.042Z,5.60
2019-02-26T01:05:15.822Z,5.60
2019-02-26T01:07:49.485Z,5.70
2019-02-26T01:10:21.247Z,5.70
2019-02-26T01:12:51.348Z,5.60
2019-02-26T01:15:23.625Z,5.60
2019-02-26T01:17:56.617Z,5.50
2019-02-26T01:20:28.018Z,5.40
2019-02-26T01:22:59.405Z,5.40
2019-02-26T01:25:29.836Z,5.30
2019-02-26T01:28:01.909Z,5.20
2019-02-26T01:30:35.675Z,5.30
2019-02-26T01:33:05.612Z,5.30
2019-02-26T01:35:37.757Z,5.40
2019-02-26T01:38:08.956Z,5.50
2019-02-26T01:40:43.644Z,5.60
2019-02-26T01:43:11.820Z,5.70
2019-02-26T01:45:44.000Z,5.70
2019-02-26T01:48:18.639Z,5.50
2019-02-26T01:50:49.372Z,5.40
2019-02-26T01:53:21.990Z,5.30
2019-02-26T01:55:54.083Z,5.30
2019-02-26T01:58:24.733Z,5.40
2019-02-26T02:00:55.969Z,5.40
2019-02-26T02:03:28.042Z,5.40
2019-02-26T02:06:00.058Z,5.30
2019-02-26T02:08:30.605Z,5.20
2019-02-26T02:11:02.398Z,5.30
2019-02-26T02:13:35.661Z,5.30
2019-02-26T02:16:06.799Z,5.30
2019-02-26T02:18:38.166Z,5.30
2019-02-26T02:21:08.632Z,5.20
2019-02-26T02:23:39.116Z,5.10
2019-02-26T02:26:11.635Z,5.00
2019-02-26T02:28:43.250Z,5.00
2019-02-26T02:31:13.901Z,5.00
2019-02-26T02:33:44.420Z,5.00
2019-02-26T02:36:20.612Z,5.00
2019-02-26T02:38:49.922Z,4.90
2019-02-26T02:41:20.475Z,4.90
2019-02-26T02:43:51.057Z,4.80
2019-02-26T02:46:23.508Z,4.70
2019-02-26T02:48:54.286Z,4.70
2019-02-26T02:51:25.700Z,4.80
2019-02-26T02:54:00.237Z,4.80
2019-02-26T02:56:33.214Z,4.70
2019-02-26T02:59:05.961Z,4.70
2019-02-26T03:01:36.453Z,4.60
2019-02-26T03:04:06.930Z,4.60
2019-02-26T03:06:38.680Z,4.50
2019-02-26T03:09:17.220Z,4.40
2019-02-26T03:11:49.303Z,4.30
2019-02-26T03:14:19.358Z,4.20
2019-02-26T03:16:53.486Z,4.20
2019-02-26T03:19:23.470Z,4.20
2019-02-26T03:21:54.998Z,4.20
2019-02-26T03:24:28.368Z,4.30
2019-02-26T03:26:57.958Z,4.30
2019-02-26T03:29:28.415Z,4.50
2019-02-26T03:31:58.899Z,4.60
2019-02-26T03:34:29.338Z,4.70
2019-02-26T03:37:03.099Z,4.80
2019-02-26T03:39:32.549Z,4.90
2019-02-26T03:42:03.112Z,4.90
2019-02-26T03:44:34.116Z,4.80
2019-02-26T03:47:04.649Z,4.80
2019-02-26T03:49:35.239Z,4.70
2019-02-26T03:52:05.703Z,4.70
2019-02-26T03:54:39.847Z,4.60
2019-02-26T03:57:09.045Z,4.50
2019-02-26T03:59:40.562Z,4.50
2019-02-26T04:02:11.907Z,4.50
2019-02-26T04:04:48.543Z,4.60
2019-02-26T04:07:15.991Z,4.50
2019-02-26T04:09:47.308Z,4.60
2019-02-26T04:12:20.849Z,4.50
2019-02-26T04:14:51.427Z,4.50
2019-02-26T04:17:25.429Z,4.50
2019-02-26T04:19:54.444Z,4.40
2019-02-26T04:22:33.046Z,4.30
2019-02-26T04:25:16.280Z,4.30
2019-02-26T04:28:07.723Z,4.30
2019-02-26T04:31:16.979Z,4.30
2019-02-26T04:34:25.693Z,4.40
2019-02-26T04:37:38.527Z,4.40
2019-02-26T04:40:40.998Z,4.50
2019-02-26T04:43:41.141Z,4.30
2019-02-26T04:46:41.647Z,4.40
2019-02-26T04:49:14.762Z,4.30
2019-02-26T04:51:47.772Z,4.30
2019-02-26T04:54:23.807Z,4.40
2019-02-26T04:56:50.956Z,4.40
2019-02-26T04:59:21.610Z,4.30
2019-02-26T05:01:55.129Z,4.30
2019-02-26T05:04:30.546Z,4.50
2019-02-26T05:07:04.342Z,4.30
2019-02-26T05:09:35.326Z,4.30
2019-02-26T05:12:05.227Z,4.20
2019-02-26T05:14:36.253Z,4.20
2019-02-26T05:17:06.882Z,4.20
2019-02-26T05:19:39.590Z,4.10
2019-02-26T05:22:10.389Z,3.90
2019-02-26T05:24:44.220Z,3.90
2019-02-26T05:27:18.620Z,3.90
2019-02-26T05:29:49.259Z,3.90
2019-02-26T05:32:21.810Z,3.80
2019-02-26T05:34:52.201Z,3.90
2019-02-26T05:37:22.479Z,3.90
2019-02-26T05:39:54.581Z,3.80
2019-02-26T05:42:25.344Z,3.80
2019-02-26T05:44:59.832Z,3.70
2019-02-26T05:47:30.193Z,3.70
2019-02-26T05:50:02.682Z,3.60
2019-02-26T05:52:35.862Z,3.70
2019-02-26T05:55:06.117Z,3.70
2019-02-26T05:57:37.420Z,3.50
2019-02-26T06:00:08.736Z,3.50
2019-02-26T06:02:42.619Z,3.40
2019-02-26T06:05:14.435Z,3.40
2019-02-26T06:07:46.026Z,3.50
2019-02-26T06:10:21.006Z,3.60
2019-02-26T06:12:51.103Z,3.50
2019-02-26T06:15:23.105Z,3.50
2019-02-26T06:17:55.962Z,3.50
2019-02-26T06:20:29.241Z,3.30
2019-02-26T06:22:59.829Z,3.30
2019-02-26T06:25:31.276Z,3.20
2019-02-26T06:28:06.794Z,3.30
2019-02-26T06:30:35.027Z,3.10
2019-02-26T06:33:07.135Z,3.00
2019-02-26T06:35:40.547Z,2.90
2019-02-26T06:38:11.664Z,2.80
2019-02-26T06:40:48.836Z,2.80
2019-02-26T06:43:19.020Z,2.70
2019-02-26T06:45:50.242Z,2.70
2019-02-26T06:48:24.619Z,2.70
2019-02-26T06:50:55.660Z,2.70
2019-02-26T06:53:27.019Z,2.70
2019-02-26T06:55:58.612Z,2.70
2019-02-26T06:58:30.967Z,2.60
2019-02-26T07:01:02.177Z,2.60
2019-02-26T07:03:33.575Z,2.80
2019-02-26T07:06:08.718Z,2.80
2019-02-26T07:08:44.515Z,3.00
2019-02-26T07:11:16.617Z,3.10
2019-02-26T07:13:48.837Z,3.30
2019-02-26T07:16:21.145Z,3.40
2019-02-26T07:18:55.674Z,3.40
2019-02-26T07:21:26.983Z,3.40
2019-02-26T07:24:00.976Z,3.30
2019-02-26T07:26:33.073Z,3.40
2019-02-26T07:29:05.840Z,3.60
2019-02-26T07:31:41.983Z,3.70
2019-02-26T07:34:15.635Z,4.00
2019-02-26T07:36:47.940Z,4.20
2019-02-26T07:39:22.726Z,4.40
2019-02-26T07:41:54.449Z,4.50
2019-02-26T07:44:27.936Z,4.60
2019-02-26T07:47:00.960Z,4.80
2019-02-26T07:49:31.842Z,4.90
2019-02-26T07:52:06.657Z,5.10
2019-02-26T07:54:40.441Z,5.40
2019-02-26T07:57:11.658Z,5.50
2019-02-26T07:59:44.688Z,5.70
2019-02-26T08:02:15.466Z,5.70
2019-02-26T08:04:46.556Z,5.80
2019-02-26T08:07:21.487Z,5.70
2019-02-26T08:09:52.084Z,5.90
2019-02-26T08:12:23.384Z,5.90
2019-02-26T08:14:54.580Z,6.00
2019-02-26T08:17:25.974Z,6.20
2019-02-26T08:19:58.980Z,6.40
2019-02-26T08:22:31.912Z,6.60
2019-02-26T08:25:03.024Z,6.80
2019-02-26T08:27:35.574Z,7.00
2019-02-26T08:30:09.150Z,7.20
2019-02-26T08:32:40.530Z,7.30
2019-02-26T08:35:12.724Z,7.40
2019-02-26T08:37:43.860Z,7.60
2019-02-26T08:40:15.539Z,7.80
2019-02-26T08:42:46.406Z,8.10
2019-02-26T08:45:21.034Z,8.30
2019-02-26T08:47:52.080Z,8.20
2019-02-26T08:50:23.138Z,8.60
2019-02-26T08:52:56.221Z,8.80
2019-02-26T08:55:27.791Z,9.10
2019-02-26T08:57:59.168Z,9.30
2019-02-26T09:00:34.221Z,9.60
2019-02-26T09:03:08.263Z,9.90
2019-02-26T09:05:38.377Z,10.10
2019-02-26T09:08:12.840Z,10.40
2019-02-26T09:10:46.335Z,10.80
2019-02-26T09:13:18.578Z,11.00
2019-02-26T09:15:49.470Z,11.20
2019-02-26T09:18:22.428Z,11.40
2019-02-26T09:20:53.823Z,11.70
2019-02-26T09:23:25.829Z,11.90
2019-02-26T09:25:59.628Z,12.10
2019-02-26T09:28:32.058Z,12.30
2019-02-26T09:31:06.713Z,12.40
2019-02-26T09:33:42.758Z,12.20
2019-02-26T09:36:15.750Z,12.40
2019-02-26T09:38:49.640Z,12.40
2019-02-26T09:41:21.453Z,12.60
2019-02-26T09:43:52.574Z,12.60
2019-02-26T09:46:23.811Z,12.60
2019-02-26T09:48:55.125Z,12.60
2019-02-26T09:51:28.232Z,12.70
2019-02-26T09:53:59.236Z,13.00
2019-02-26T09:56:30.724Z,13.20
2019-02-26T09:59:05.140Z,13.20
2019-02-26T10:01:42.819Z,13.50
2019-02-26T10:04:14.160Z,13.80
2019-02-26T10:06:47.514Z,13.90
2019-02-26T10:09:20.605Z,14.00
2019-02-26T10:11:52.974Z,14.10
2019-02-26T10:14:26.372Z,14.20
2019-02-26T10:16:57.530Z,14.40
2019-02-26T10:19:30.950Z,14.30
2019-02-26T10:22:05.604Z,14.40
2019-02-26T10:24:35.366Z,14.50
2019-02-26T10:27:09.391Z,14.60
2019-02-26T10:29:45.156Z,14.90
2019-02-26T10:32:15.833Z,14.90
2019-02-26T10:34:49.098Z,14.90
2019-02-26T10:37:23.238Z,15.00
2019-02-26T10:39:58.941Z,15.00
2019-02-26T10:42:39.473Z,15.20
2019-02-26T10:45:02.801Z,15.30
2019-02-26T10:47:34.729Z,15.20
2019-02-26T10:50:06.916Z,15.20
2019-02-26T10:52:39.185Z,15.20
2019-02-26T10:55:12.909Z,15.20
2019-02-26T10:57:43.084Z,15.40
2019-02-26T11:00:25.970Z,15.50
2019-02-26T11:02:56.406Z,15.70
2019-02-26T11:05:27.276Z,15.70
2019-02-26T11:08:05.373Z,15.80
2019-02-26T11:10:39.457Z,15.70
2019-02-26T11:13:06.609Z,15.80
2019-02-26T11:15:37.733Z,16.00
2019-02-26T11:18:11.762Z,16.20
2019-02-26T11:20:45.822Z,16.30
2019-02-26T11:23:16.620Z,16.30
2019-02-26T11:25:47.948Z,16.20
2019-02-26T11:28:19.092Z,16.30
2019-02-26T11:30:52.123Z,16.50
2019-02-26T11:33:23.084Z,16.70
2019-02-26T11:35:56.398Z,16.60
2019-02-26T11:38:28.095Z,16.80
2019-02-26T11:40:59.403Z,16.90
2019-02-26T11:43:30.814Z,17.10
2019-02-26T11:46:03.789Z,17.10
2019-02-26T11:48:35.044Z,17.30
2019-02-26T11:51:06.091Z,17.40
2019-02-26T11:53:37.328Z,17.40
2019-02-26T11:56:08.375Z,17.60
2019-02-26T11:58:39.618Z,17.70
2019-02-26T12:01:14.194Z,17.70
2019-02-26T12:03:45.303Z,17.70
2019-02-26T12:06:16.619Z,17.80
2019-02-26T12:08:49.927Z,17.90
2019-02-26T12:11:25.801Z,18.00
2019-02-26T12:13:56.883Z,18.00
2019-02-26T12:16:30.964Z,18.10
2019-02-26T12:19:10.803Z,18.30
2019-02-26T12:21:41.475Z,18.30
2019-02-26T12:24:12.607Z,18.40
2019-02-26T12:26:45.318Z,18.40
2019-02-26T12:29:18.560Z,18.30
2019-02-26T12:31:50.216Z,18.40
2019-02-26T12:34:23.645Z,18.60
2019-02-26T12:36:57.142Z,18.60
2019-02-26T12:39:31.490Z,18.60
2019-02-26T12:42:03.309Z,18.70
2019-02-26T12:44:37.844Z,18.80
2019-02-26T12:47:07.062Z,18.90
2019-02-26T12:49:39.146Z,18.80
2019-02-26T12:52:10.400Z,18.90
2019-02-26T12:54:42.839Z,18.90
2019-02-26T12:57:16.931Z,19.00
2019-02-26T12:59:46.499Z,19.00
2019-02-26T13:02:20.787Z,19.00
2019-02-26T13:04:51.153Z,19.00
2019-02-26T13:07:22.585Z,19.10
2019-02-26T13:09:56.088Z,19.10
2019-02-26T13:12:29.641Z,19.20
2019-02-26T13:17:32.361Z,19.10
2019-02-26T13:20:05.742Z,19.30
2019-02-26T13:22:36.639Z,19.20
2019-02-26T13:25:09.644Z,19.20
2019-02-26T13:27:43.666Z,19.30
2019-02-26T13:30:17.991Z,19.30
2019-02-26T13:32:56.036Z,19.40
2019-02-26T13:35:22.584Z,19.30
2019-02-26T13:37:54.009Z,19.40
2019-02-26T13:40:25.653Z,19.40
2019-02-26T13:45:29.142Z,19.30
2019-02-26T13:48:01.399Z,19.30
2019-02-26T13:50:33.281Z,19.40
2019-02-26T13:53:04.035Z,19.40
2019-02-26T13:55:35.011Z,19.40
2019-02-26T13:58:11.692Z,19.40
2019-02-26T14:00:40.785Z,19.40
2019-02-26T14:03:12.250Z,19.50
2019-02-26T14:05:43.187Z,19.50
2019-02-26T14:08:15.519Z,19.50
2019-02-26T14:10:46.529Z,19.60
2019-02-26T14:13:20.533Z,19.60
2019-02-26T14:15:51.482Z,19.60
2019-02-26T14:18:22.609Z,19.50
2019-02-26T14:20:53.898Z,19.70
2019-02-26T14:23:25.697Z,19.60
2019-02-26T14:25:56.519Z,19.60
2019-02-26T14:28:30.811Z,19.50
2019-02-26T14:31:02.035Z,19.60
2019-02-26T14:33:32.837Z,19.60
2019-02-26T14:36:03.828Z,19.60
2019-02-26T14:38:35.137Z,19.50
2019-02-26T14:41:06.451Z,19.40
2019-02-26T14:43:40.747Z,19.20
2019-02-26T14:46:12.686Z,19.30
2019-02-26T14:48:43.774Z,19.30
2019-02-26T14:51:17.822Z,19.20
2019-02-26T14:53:49.280Z,19.10
2019-02-26T14:56:20.453Z,19.20
2019-02-26T14:58:51.549Z,19.10
2019-02-26T15:01:23.058Z,19.10
2019-02-26T15:03:54.003Z,19.10
2019-02-26T15:06:24.929Z,19.00
2019-02-26T15:08:55.581Z,19.00
2019-02-26T15:11:26.625Z,19.00
2019-02-26T15:14:00.356Z,18.90
2019-02-26T15:16:29.989Z,18.90
2019-02-26T15:19:01.394Z,18.90
2019-02-26T15:21:32.548Z,19.00
2019-02-26T15:24:03.596Z,19.00
2019-02-26T15:26:34.400Z,18.90
2019-02-26T15:29:05.370Z,18.90
2019-02-26T15:31:39.601Z,18.90
2019-02-26T15:34:10.835Z,19.00
2019-02-26T15:36:44.308Z,19.00
2019-02-26T15:39:16.106Z,19.00
2019-02-26T15:41:48.293Z,18.90
2019-02-26T15:44:19.292Z,19.00
2019-02-26T15:46:50.261Z,18.80
2019-02-26T15:49:21.377Z,18.90
2019-02-26T15:51:52.757Z,18.80
2019-02-26T15:54:25.309Z,18.80
2019-02-26T15:57:00.448Z,18.70
2019-02-26T15:59:35.491Z,18.70
2019-02-26T16:02:04.085Z,18.80
2019-02-26T16:04:37.556Z,18.70
2019-02-26T16:07:11.602Z,18.60
2019-02-26T16:09:44.204Z,18.50
2019-02-26T16:12:16.024Z,18.60
2019-02-26T16:14:48.649Z,18.50
2019-02-26T16:17:22.891Z,18.40
2019-02-26T16:19:54.401Z,18.30
2019-02-26T16:22:25.785Z,18.20
2019-02-26T16:24:57.162Z,18.20
2019-02-26T16:27:28.136Z,18.10
2019-02-26T16:29:59.173Z,18.00
2019-02-26T16:32:30.523Z,18.10
2019-02-26T16:35:01.720Z,18.00
2019-02-26T16:37:32.421Z,17.90
2019-02-26T16:40:03.463Z,17.80
2019-02-26T16:42:35.080Z,17.70
2019-02-26T16:45:09.475Z,17.60
2019-02-26T16:47:40.923Z,17.60
2019-02-26T16:50:14.525Z,17.60
2019-02-26T16:52:45.290Z,17.30
2019-02-26T16:55:17.323Z,17.30
2019-02-26T16:57:48.777Z,17.10
2019-02-26T17:00:21.027Z,16.90
2019-02-26T17:02:54.835Z,16.90
2019-02-26T17:05:26.625Z,16.80
2019-02-26T17:07:57.631Z,16.70
2019-02-26T17:10:30.348Z,16.60
2019-02-26T17:13:02.287Z,16.50
2019-02-26T17:15:33.079Z,16.50
2019-02-26T17:18:04.927Z,16.30
2019-02-26T17:20:35.388Z,16.10
2019-02-26T17:23:05.648Z,16.00
2019-02-26T17:25:35.954Z,16.00
2019-02-26T17:28:06.265Z,15.80
2019-02-26T17:30:37.001Z,15.60
2019-02-26T17:33:11.394Z,15.60
2019-02-26T17:35:39.491Z,15.60
2019-02-26T17:38:10.107Z,15.40
2019-02-26T17:40:40.791Z,15.10
2019-02-26T17:43:11.229Z,15.10
2019-02-26T17:45:41.875Z,15.10
2019-02-26T17:48:12.389Z,15.10
2019-02-26T17:50:45.701Z,15.00
2019-02-26T17:53:14.828Z,14.90
2019-02-26T17:55:46.896Z,14.90
2019-02-26T17:58:17.638Z,14.80
2019-02-26T18:00:52.839Z,14.90
2019-02-26T18:03:23.272Z,14.90
2019-02-26T18:05:53.639Z,14.90
2019-02-26T18:08:24.181Z,14.90
2019-02-26T18:10:58.849Z,14.60
2019-02-26T18:13:29.435Z,14.30
2019-02-26T18:16:08.753Z,14.20
2019-02-26T18:18:34.420Z,14.00
2019-02-26T18:21:06.538Z,13.90
2019-02-26T18:23:37.751Z,13.80
2019-02-26T18:26:08.750Z,13.70
2019-02-26T18:28:39.420Z,13.70
2019-02-26T18:31:10.016Z,13.50
2019-02-26T18:33:40.801Z,13.50
2019-02-26T18:36:11.477Z,13.40
2019-02-26T18:38:42.141Z,13.30
2019-02-26T18:41:12.843Z,13.20
2019-02-26T18:43:44.808Z,13.10
2019-02-26T18:46:15.647Z,12.90
2019-02-26T18:48:48.549Z,12.70
2019-02-26T18:51:18.665Z,12.70
2019-02-26T18:53:50.545Z,12.70
2019-02-26T18:56:21.419Z,12.60
2019-02-26T18:58:51.956Z,12.50
2019-02-26T19:01:22.728Z,12.40
2019-02-26T19:03:53.128Z,12.40
2019-02-26T19:06:24.702Z,12.30
2019-02-26T19:08:55.798Z,12.30
2019-02-26T19:11:26.437Z,12.20
2019-02-26T19:13:56.982Z,12.20
2019-02-26T19:16:27.456Z,12.10
2019-02-26T19:18:58.280Z,12.00
2019-02-26T19:21:28.740Z,11.80
2019-02-26T19:23:59.355Z,11.70
2019-02-26T19:26:30.996Z,11.60
2019-02-26T19:29:02.235Z,11.50
2019-02-26T19:31:32.684Z,11.50
2019-02-26T19:34:03.638Z,11.50
2019-02-26T19:36:34.390Z,11.40
2019-02-26T19:39:07.435Z,11.30
2019-02-26T19:41:38.005Z,11.30
2019-02-26T19:44:08.525Z,11.10
2019-02-26T19:46:39.255Z,11.10
2019-02-26T19:49:09.723Z,10.90
2019-02-26T19:51:40.249Z,10.80
2019-02-26T19:54:12.720Z,10.80
2019-02-26T19:56:43.389Z,10.80
2019-02-26T19:59:21.569Z,10.80
2019-02-26T20:01:53.007Z,10.70
2019-02-26T20:04:23.548Z,10.70
2019-02-26T20:06:54.145Z,10.70
2019-02-26T20:09:24.577Z,10.40
2019-02-26T20:11:56.240Z,10.40
2019-02-26T20:14:27.583Z,10.40
2019-02-26T20:16:58.460Z,10.40
2019-02-26T20:19:31.912Z,10.30
2019-02-26T20:22:03.189Z,10.20
2019-02-26T20:24:35.250Z,10.20
2019-02-26T20:27:06.179Z,10.00
2019-02-26T20:29:36.785Z,9.90
2019-02-26T20:32:08.864Z,9.70
2019-02-26T20:34:40.120Z,9.70
2019-02-26T20:37:10.660Z,9.60
2019-02-26T20:39:43.999Z,9.50
2019-02-26T20:42:13.700Z,9.50
2019-02-26T20:44:45.857Z,9.50
2019-02-26T20:47:16.469Z,9.40
2019-02-26T20:49:47.092Z,9.30
2019-02-26T20:52:17.616Z,9.30
2019-02-26T20:54:48.620Z,9.20
2019-02-26T20:57:19.114Z,9.30
2019-02-26T20:59:51.905Z,9.30
2019-02-26T21:02:22.791Z,9.10
2019-02-26T21:04:53.554Z,9.10
2019-02-26T21:07:24.582Z,9.00
2019-02-26T21:10:03.515Z,9.00
2019-02-26T21:12:28.773Z,8.90
2019-02-26T21:15:00.015Z,8.80
2019-02-26T21:17:33.744Z,8.80
2019-02-26T21:20:07.497Z,8.60
2019-02-26T21:22:38.218Z,8.60
2019-02-26T21:25:13.657Z,8.60
2019-02-26T21:27:44.274Z,8.40
2019-02-26T21:30:16.973Z,8.40
2019-02-26T21:32:47.506Z,8.20
2019-02-26T21:35:20.555Z,8.30
2019-02-26T21:37:50.032Z,8.30
2019-02-26T21:40:21.055Z,8.30
2019-02-26T21:42:53.094Z,8.30
2019-02-26T21:45:23.941Z,8.20
2019-02-26T21:47:54.474Z,8.20
2019-02-26T21:50:25.039Z,8.20
2019-02-26T21:53:02.468Z,8.10
2019-02-26T21:55:27.662Z,8.10
2019-02-26T21:57:58.358Z,8.00
2019-02-26T22:00:28.910Z,8.00
2019-02-26T22:02:59.387Z,8.00
2019-02-26T22:05:29.976Z,7.90
2019-02-26T22:08:00.585Z,7.80
2019-02-26T22:10:31.041Z,7.80
2019-02-26T22:13:01.534Z,7.80
2019-02-26T22:15:32.008Z,7.50
2019-02-26T22:18:02.888Z,7.50
2019-02-26T22:20:36.529Z,7.50
2019-02-26T22:23:05.632Z,7.30
2019-02-26T22:25:36.342Z,7.40
2019-02-26T22:28:08.825Z,7.40
2019-02-26T22:30:39.046Z,7.30
2019-02-26T22:33:11.475Z,7.30
2019-02-26T22:35:42.201Z,7.20
2019-02-26T22:38:15.339Z,7.00
2019-02-26T22:40:45.126Z,7.00
2019-02-26T22:43:15.644Z,6.80
2019-02-26T22:45:46.155Z,6.80
2019-02-26T22:48:16.915Z,6.70
2019-02-26T22:50:47.799Z,6.70
2019-02-26T22:53:18.316Z,6.70
2019-02-26T22:55:50.347Z,6.70
2019-02-26T22:58:20.904Z,6.50
2019-02-26T23:01:11.404Z,6.50
2019-02-26T23:03:45.681Z,6.50
2019-02-26T23:06:15.840Z,6.30
2019-02-26T23:08:46.606Z,6.30
2019-02-26T23:11:19.390Z,6.30
2019-02-26T23:13:50.232Z,6.20
2019-02-26T23:16:21.378Z,6.30
2019-02-26T23:18:52.982Z,6.10
2019-02-26T23:21:24.014Z,6.10
2019-02-26T23:23:55.340Z,6.10
2019-02-26T23:26:25.905Z,6.10
2019-02-26T23:28:57.856Z,6.00
2019-02-26T23:31:32.645Z,6.10
2019-02-26T23:34:00.959Z,6.00
2019-02-26T23:36:31.806Z,5.90
2019-02-26T23:39:03.514Z,5.90
2019-02-26T23:41:34.764Z,5.90
2019-02-26T23:44:05.358Z,5.90
2019-02-26T23:46:36.392Z,5.80
2019-02-26T23:49:11.724Z,5.80
2019-02-26T23:51:41.428Z,5.80
2019-02-26T23:54:12.082Z,5.70
2019-02-26T23:56:42.696Z,5.60
2019-02-26T23:59:13.126Z,5.50
